Time;durP1;ratioP1;P1;durP2;ratioP2;P2;SDS_P1;SDS_P2;PMS_P1;PMS_P2;Temp;Humidity;BMP_temperature;BMP_pressure;BME280_temperature;BME280_humidity;BME280_pressure;Samples;Min_cycle;Max_cycle;Signal;HPM_P1;HPM_P2
2022/07/06 00:01:44;;;;;;;5.10;2.67;;;16.90;25.90;;;;;;5016369;28;20585;-81
2022/07/06 00:04:09;;;;;;;5.13;2.70;;;16.70;28.00;;;;;;5015414;28;20249;-81
2022/07/06 00:06:35;;;;;;;5.30;3.03;;;16.70;29.20;;;;;;5015462;28;20647;-82
2022/07/06 00:09:01;;;;;;;5.63;2.80;;;16.70;30.60;;;;;;5015285;28;20189;-79
2022/07/06 00:11:27;;;;;;;4.93;3.00;;;16.80;28.80;;;;;;5047357;28;20295;-85
2022/07/06 00:13:53;;;;;;;7.13;3.13;;;16.70;29.70;;;;;;5014962;28;20212;-78
2022/07/06 00:16:19;;;;;;;6.47;3.17;;;16.80;30.00;;;;;;5015273;28;20265;-81
2022/07/06 00:18:45;;;;;;;8.93;3.13;;;16.90;28.60;;;;;;5015069;28;20279;-81
2022/07/06 00:21:11;;;;;;;6.10;3.03;;;16.90;28.20;;;;;;5016520;28;20171;-81
2022/07/06 00:23:37;;;;;;;7.07;3.30;;;16.80;30.00;;;;;;5020350;28;20172;-79
2022/07/06 00:26:03;;;;;;;6.07;3.47;;;16.80;29.00;;;;;;5026881;28;20177;-85
2022/07/06 00:28:28;;;;;;;7.77;3.63;;;16.90;29.50;;;;;;5026754;28;20193;-78
2022/07/06 00:30:54;;;;;;;6.60;3.07;;;16.90;29.40;;;;;;5029500;28;20301;-83
2022/07/06 00:33:21;;;;;;;7.00;3.10;;;17.00;26.20;;;;;;5023288;28;20181;-84
2022/07/06 00:35:46;;;;;;;5.70;2.87;;;17.10;22.80;;;;;;5015979;28;20228;-86
2022/07/06 00:38:12;;;;;;;6.60;3.33;;;17.20;21.70;;;;;;5015277;28;20171;-79
2022/07/06 00:40:38;;;;;;;7.77;3.27;;;17.20;20.60;;;;;;5014944;28;20206;-83
2022/07/06 00:43:23;;;;;;;9.80;3.90;;;17.20;20.30;;;;;;5019436;28;20166;-77
2022/07/06 00:45:49;;;;;;;6.40;3.10;;;17.10;21.30;;;;;;5031037;28;20192;-75
2022/07/06 00:48:14;;;;;;;7.13;2.70;;;17.00;22.90;;;;;;5030017;28;20197;-79
2022/07/06 00:50:40;;;;;;;7.10;3.37;;;17.00;26.10;;;;;;5019965;28;20580;-87
2022/07/06 00:53:09;;;;;;;10.33;3.60;;;17.10;21.70;;;;;;5048972;28;20159;-78
2022/07/06 00:55:39;;;;;;;7.40;3.20;;;17.20;20.40;;;;;;5016477;28;20158;-78
2022/07/06 00:58:06;;;;;;;6.23;3.40;;;17.20;18.30;;;;;;5015950;28;20671;-79
2022/07/06 01:00:32;;;;;;;5.00;3.27;;;17.20;18.20;;;;;;5016570;28;20253;-79
2022/07/06 01:02:58;;;;;;;7.57;3.03;;;17.30;16.30;;;;;;5019056;28;20182;-85
2022/07/06 01:05:24;;;;;;;6.23;3.60;;;17.30;17.70;;;;;;5021262;28;20171;-82
2022/07/06 01:07:52;;;;;;;5.70;3.40;;;17.20;14.90;;;;;;5027205;28;20170;-80
2022/07/06 01:10:18;;;;;;;6.50;3.40;;;17.20;17.00;;;;;;5026340;28;20216;-79
2022/07/06 01:12:46;;;;;;;8.03;3.50;;;17.20;17.30;;;;;;5019775;28;20167;-82
2022/07/06 01:15:23;;;;;;;7.30;3.17;;;17.20;14.50;;;;;;5016178;28;20553;-84
2022/07/06 01:17:49;;;;;;;7.67;3.30;;;17.10;16.50;;;;;;5031257;28;20166;-81
2022/07/06 01:20:16;;;;;;;6.97;3.37;;;17.00;19.60;;;;;;5060317;28;20186;-79
2022/07/06 01:22:47;;;;;;;8.97;3.40;;;17.00;18.20;;;;;;5015727;28;20163;-81
2022/07/06 01:25:14;;;;;;;8.07;3.57;;;16.90;21.30;;;;;;5014946;28;20155;-84
2022/07/06 01:27:41;;;;;;;12.00;3.57;;;16.90;26.00;;;;;;5014846;28;20178;-82
2022/07/06 01:30:10;;;;;;;10.63;4.30;;;16.90;27.30;;;;;;5012954;28;20301;-80
2022/07/06 01:32:37;;;;;;;8.30;3.63;;;16.70;30.00;;;;;;5014595;28;20169;-84
2022/07/06 01:35:04;;;;;;;9.03;3.57;;;16.60;34.70;;;;;;5014411;28;20171;-83
2022/07/06 01:37:30;;;;;;;12.13;4.70;;;16.50;37.10;;;;;;5014017;28;20163;-86
2022/07/06 01:40:01;;;;;;;10.10;4.87;;;16.60;37.60;;;;;;5048933;28;20173;-77
2022/07/06 01:42:27;;;;;;;8.53;4.27;;;16.60;36.10;;;;;;5030463;28;20143;-77
2022/07/06 01:44:54;;;;;;;12.47;4.17;;;16.60;34.80;;;;;;5029803;28;20235;-78
2022/07/06 01:47:20;;;;;;;9.23;4.57;;;16.60;33.40;;;;;;5027664;28;20253;-85
2022/07/06 01:49:45;;;;;;;12.33;4.30;;;16.60;34.20;;;;;;5019702;28;20229;-85
2022/07/06 01:52:11;;;;;;;10.97;4.93;;;16.50;36.30;;;;;;5019647;28;20163;-85
2022/07/06 01:54:40;;;;;;;11.80;4.57;;;16.50;37.30;;;;;;5018407;28;20156;-82
2022/07/06 01:57:07;;;;;;;12.43;4.80;;;16.40;37.10;;;;;;5018048;28;20642;-82
2022/07/06 01:59:33;;;;;;;10.80;4.00;;;16.40;36.60;;;;;;5018113;28;20568;-86
2022/07/06 02:01:59;;;;;;;8.67;3.90;;;16.40;37.30;;;;;;5016676;28;20184;-82
2022/07/06 02:04:25;;;;;;;11.20;4.00;;;16.40;35.30;;;;;;5018368;28;20225;-84
2022/07/06 02:06:51;;;;;;;14.00;3.97;;;16.50;33.20;;;;;;5019535;28;20321;-80
2022/07/06 02:09:16;;;;;;;13.60;4.47;;;16.60;31.50;;;;;;5017700;28;20199;-78
2022/07/06 02:11:43;;;;;;;13.27;4.27;;;16.60;28.10;;;;;;5017855;28;20179;-79
2022/07/06 02:14:08;;;;;;;15.13;5.13;;;16.60;28.90;;;;;;5018255;28;20257;-85
2022/07/06 02:16:34;;;;;;;15.57;5.17;;;16.60;25.50;;;;;;5018007;28;20206;-80
2022/07/06 02:19:01;;;;;;;13.70;4.63;;;16.50;27.80;;;;;;5049879;28;20166;-86
2022/07/06 02:21:27;;;;;;;20.53;5.13;;;16.40;32.60;;;;;;5020675;28;20187;-80
2022/07/06 02:23:52;;;;;;;16.73;5.10;;;16.40;32.30;;;;;;5053495;28;20183;-84
2022/07/06 02:26:18;;;;;;;11.83;5.17;;;16.40;30.60;;;;;;5022381;28;20609;-86
2022/07/06 02:28:46;;;;;;;11.27;4.10;;;16.50;29.50;;;;;;5018618;28;20185;-85
2022/07/06 02:31:13;;;;;;;14.40;4.43;;;16.20;35.10;;;;;;5017336;28;20221;-86
2022/07/06 02:33:39;;;;;;;8.20;3.60;;;16.10;38.60;;;;;;5018252;28;20738;-81
2022/07/06 02:36:05;;;;;;;12.97;4.67;;;16.00;42.60;;;;;;5018159;28;20209;-87
2022/07/06 02:38:30;;;;;;;13.07;3.80;;;16.00;44.00;;;;;;5017695;28;20194;-86
2022/07/06 02:40:56;;;;;;;10.40;3.93;;;16.10;43.20;;;;;;5017427;28;20171;-86
2022/07/06 02:43:22;;;;;;;15.23;4.30;;;16.20;41.40;;;;;;5017691;28;20618;-84
2022/07/06 02:45:47;;;;;;;9.60;4.13;;;16.30;39.40;;;;;;5052541;28;20578;-84
2022/07/06 02:48:13;;;;;;;11.70;3.70;;;16.40;37.70;;;;;;5027386;28;20194;-80
2022/07/06 02:50:39;;;;;;;11.03;4.57;;;16.40;36.00;;;;;;5066676;28;20214;-86
2022/07/06 02:53:05;;;;;;;9.47;4.43;;;16.30;35.20;;;;;;5032653;28;20235;-78
2022/07/06 02:55:30;;;;;;;15.23;4.33;;;16.40;34.00;;;;;;5035057;28;20689;-79
2022/07/06 02:57:56;;;;;;;16.67;4.37;;;16.30;35.30;;;;;;5034318;28;20266;-83
2022/07/06 03:00:22;;;;;;;11.77;4.90;;;16.30;34.80;;;;;;5037281;28;20186;-78
2022/07/06 03:02:51;;;;;;;13.27;4.53;;;16.30;31.30;;;;;;5025609;28;20635;-85
2022/07/06 03:05:24;;;;;;;13.20;4.70;;;16.30;31.90;;;;;;5018266;28;20602;-78
2022/07/06 03:07:52;;;;;;;13.57;4.50;;;16.30;34.00;;;;;;5028938;28;20646;-81
2022/07/06 03:10:17;;;;;;;12.33;4.20;;;16.10;38.20;;;;;;5030364;28;20210;-81
2022/07/06 03:12:46;;;;;;;15.93;4.80;;;16.10;39.60;;;;;;5028246;28;20175;-80
2022/07/06 03:15:12;;;;;;;9.57;4.27;;;16.10;40.80;;;;;;5024828;28;20175;-82
2022/07/06 03:17:40;;;;;;;12.23;4.20;;;16.10;39.80;;;;;;5028547;28;20163;-77
2022/07/06 03:20:07;;;;;;;11.07;4.43;;;16.00;40.80;;;;;;5033609;28;20155;-77
2022/07/06 03:22:38;;;;;;;11.47;4.23;;;16.10;38.70;;;;;;5029932;28;20191;-83
2022/07/06 03:25:06;;;;;;;11.67;4.60;;;16.10;40.50;;;;;;5017695;28;20253;-85
2022/07/06 03:27:33;;;;;;;8.33;3.60;;;16.00;42.30;;;;;;5019533;28;20186;-79
2022/07/06 03:29:59;;;;;;;21.37;4.70;;;16.00;42.00;;;;;;5016477;28;20194;-81
2022/07/06 03:32:26;;;;;;;10.00;4.37;;;16.10;40.80;;;;;;5017424;28;20178;-82
2022/07/06 03:35:29;;;;;;;12.90;4.47;;;16.00;39.80;;;;;;5016895;28;20215;-83
2022/07/06 03:37:56;;;;;;;14.37;4.80;;;15.90;42.20;;;;;;5015716;28;20170;-83
2022/07/06 03:40:22;;;;;;;17.30;4.87;;;15.70;45.90;;;;;;5016444;28;20197;-78
2022/07/06 03:42:47;;;;;;;23.53;5.40;;;15.70;46.70;;;;;;5014534;28;20182;-81
2022/07/06 03:45:13;;;;;;;13.23;4.97;;;15.70;45.60;;;;;;5016303;28;20265;-79
2022/07/06 03:47:39;;;;;;;12.43;4.90;;;15.80;43.90;;;;;;5015660;28;20218;-82
2022/07/06 03:50:05;;;;;;;12.17;4.53;;;15.70;45.60;;;;;;5015444;28;20630;-78
2022/07/06 03:52:30;;;;;;;11.77;4.83;;;15.60;49.00;;;;;;5015497;28;20190;-81
2022/07/06 03:54:56;;;;;;;12.50;4.77;;;15.60;50.50;;;;;;5015814;28;20510;-84
2022/07/06 03:57:22;;;;;;;11.23;4.70;;;15.50;51.40;;;;;;5047112;28;20730;-86
2022/07/06 03:59:48;;;;;;;12.77;4.50;;;15.70;51.60;;;;;;5014775;28;20166;-83
2022/07/06 04:02:13;;;;;;;11.47;4.27;;;15.70;47.50;;;;;;5014147;28;20269;-84
2022/07/06 04:04:39;;;;;;;8.90;4.30;;;15.80;46.30;;;;;;5015380;28;20635;-81
2022/07/06 04:07:05;;;;;;;11.77;4.43;;;15.80;44.80;;;;;;5015209;28;20697;-83
2022/07/06 04:09:30;;;;;;;12.43;4.43;;;15.70;45.50;;;;;;5014514;28;20171;-82
2022/07/06 04:11:56;;;;;;;12.77;4.37;;;15.70;48.70;;;;;;5015073;28;20538;-80
2022/07/06 04:14:22;;;;;;;14.23;4.80;;;15.70;50.20;;;;;;5015129;28;20171;-82
2022/07/06 04:16:48;;;;;;;8.97;4.43;;;15.90;47.60;;;;;;5015506;28;20179;-85
2022/07/06 04:19:14;;;;;;;12.27;4.50;;;15.80;44.20;;;;;;5015039;28;20166;-77
2022/07/06 04:21:40;;;;;;;9.97;4.50;;;15.90;45.40;;;;;;5015128;28;20184;-85
2022/07/06 04:24:05;;;;;;;8.97;5.00;;;15.90;42.20;;;;;;5014997;28;20170;-80
2022/07/06 04:26:31;;;;;;;9.07;4.77;;;16.00;40.00;;;;;;5015280;28;20198;-84
2022/07/06 04:28:58;;;;;;;10.37;5.03;;;16.00;39.70;;;;;;5024345;28;20676;-81
2022/07/06 04:31:23;;;;;;;13.53;5.03;;;16.10;37.40;;;;;;5024340;28;20226;-79
2022/07/06 04:33:49;;;;;;;9.43;4.50;;;16.20;33.70;;;;;;5059564;28;20194;-86
2022/07/06 04:36:15;;;;;;;12.07;5.47;;;16.20;33.40;;;;;;5029262;28;20178;-77
2022/07/06 04:38:41;;;;;;;11.60;4.80;;;16.20;31.00;;;;;;5060654;28;20174;-82
2022/07/06 04:41:07;;;;;;;8.60;4.93;;;16.30;30.00;;;;;;5034842;28;20209;-85
2022/07/06 04:43:36;;;;;;;12.93;5.63;;;16.20;32.60;;;;;;5053338;28;20316;-81
2022/07/06 04:46:01;;;;;;;11.10;4.90;;;16.10;35.10;;;;;;5015279;28;20175;-81
2022/07/06 04:48:27;;;;;;;12.00;4.70;;;16.10;35.60;;;;;;5015409;28;20186;-83
2022/07/06 04:50:54;;;;;;;12.03;4.73;;;16.30;32.80;;;;;;5014555;28;20636;-85
2022/07/06 04:53:19;;;;;;;11.70;6.10;;;16.40;30.40;;;;;;5014792;28;20166;-87
2022/07/06 04:55:45;;;;;;;13.13;6.10;;;16.50;27.90;;;;;;5015199;28;20175;-79
2022/07/06 04:58:11;;;;;;;11.97;6.03;;;16.60;27.00;;;;;;5014866;28;20170;-85
2022/07/06 05:00:36;;;;;;;12.63;6.00;;;16.60;29.30;;;;;;5013694;28;20706;-81
2022/07/06 05:03:03;;;;;;;11.50;5.00;;;16.40;30.40;;;;;;5013946;28;20190;-83
2022/07/06 05:05:29;;;;;;;12.13;5.80;;;16.60;28.80;;;;;;5013878;28;20155;-83
2022/07/06 05:07:54;;;;;;;13.50;5.40;;;16.70;25.30;;;;;;5013927;28;20218;-82
2022/07/06 05:10:20;;;;;;;13.27;5.80;;;16.70;25.30;;;;;;5015145;28;20202;-84
2022/07/06 05:12:46;;;;;;;12.43;6.33;;;16.70;27.50;;;;;;5014947;28;20217;-78
2022/07/06 05:15:11;;;;;;;13.37;5.17;;;16.50;29.50;;;;;;5015730;28;20174;-80
2022/07/06 05:17:37;;;;;;;11.17;5.43;;;16.50;29.90;;;;;;5015765;28;20163;-79
2022/07/06 05:20:04;;;;;;;12.53;6.00;;;16.40;31.70;;;;;;5014666;28;20641;-81
2022/07/06 05:22:30;;;;;;;13.07;5.97;;;16.40;34.50;;;;;;5017409;28;20170;-82
2022/07/06 05:24:55;;;;;;;15.30;6.13;;;16.40;33.70;;;;;;5051985;28;20171;-84
2022/07/06 05:27:21;;;;;;;15.00;6.20;;;16.50;34.60;;;;;;5019149;28;20470;-85
2022/07/06 05:29:47;;;;;;;12.10;5.17;;;16.60;31.70;;;;;;5058062;28;20204;-77
2022/07/06 05:32:12;;;;;;;13.43;6.33;;;16.60;30.80;;;;;;5033282;28;20198;-78
2022/07/06 05:34:39;;;;;;;16.20;5.73;;;16.60;30.00;;;;;;5063121;28;20209;-78
2022/07/06 05:37:05;;;;;;;13.63;6.33;;;16.80;27.80;;;;;;5022856;28;20224;-79
2022/07/06 05:39:31;;;;;;;13.03;6.00;;;16.90;26.10;;;;;;5023532;28;20167;-81
2022/07/06 05:42:08;;;;;;;14.63;6.47;;;16.90;24.80;;;;;;5030148;28;20198;-79
2022/07/06 05:44:33;;;;;;;13.00;6.37;;;17.00;20.60;;;;;;5025911;28;20538;-87
2022/07/06 05:50:11;;;;;;;11.33;5.90;;;17.00;22.20;;;;;;5019617;28;20167;-85
2022/07/06 05:52:29;;;;;;;11.70;6.30;;;17.00;22.70;;;;;;5024534;28;20222;-78
2022/07/06 05:54:54;;;;;;;12.07;6.47;;;17.00;23.40;;;;;;5025471;28;20159;-86
2022/07/06 05:57:20;;;;;;;13.83;5.80;;;17.10;21.90;;;;;;5018532;28;20162;-80
2022/07/06 05:59:47;;;;;;;8.90;6.33;;;17.30;18.50;;;;;;5050540;28;20170;-82
2022/07/06 06:02:14;;;;;;;9.17;5.60;;;17.50;12.50;;;;;;5016988;28;20253;-79
2022/07/06 06:04:39;;;;;;;13.20;6.77;;;17.60;11.30;;;;;;5017001;28;20195;-82
2022/07/06 06:07:05;;;;;;;12.17;5.87;;;17.50;16.30;;;;;;5024936;28;20185;-81
2022/07/06 06:09:30;;;;;;;11.53;5.83;;;17.50;17.70;;;;;;5021034;28;20232;-80
2022/07/06 06:11:56;;;;;;;9.50;5.83;;;17.50;16.90;;;;;;5032386;28;20186;-81
2022/07/06 06:14:22;;;;;;;10.70;5.90;;;17.50;16.60;;;;;;5017261;28;20177;-80
2022/07/06 06:16:47;;;;;;;10.40;5.57;;;17.60;15.20;;;;;;5015844;28;20622;-81
2022/07/06 06:19:13;;;;;;;12.47;5.67;;;17.70;15.50;;;;;;5021089;28;20174;-77
2022/07/06 06:21:39;;;;;;;12.13;5.60;;;17.90;15.10;;;;;;5033951;28;20173;-80
2022/07/06 06:24:07;;;;;;;13.23;5.63;;;18.10;7.80;;;;;;5029121;28;20168;-84
2022/07/06 06:26:33;;;;;;;11.73;5.27;;;18.20;6.50;;;;;;5034216;28;20182;-80
2022/07/06 06:29:01;;;;;;;8.73;4.97;;;18.40;3.00;;;;;;5038100;28;20185;-80
2022/07/06 06:31:26;;;;;;;9.23;5.60;;;18.60;1.00;;;;;;5034606;28;20218;-80
2022/07/06 06:33:53;;;;;;;12.10;5.70;;;18.80;1.00;;;;;;5031454;28;20536;-80
2022/07/06 06:36:18;;;;;;;10.57;5.30;;;18.90;1.00;;;;;;5034778;28;20185;-80
2022/07/06 06:38:44;;;;;;;8.17;5.47;;;18.90;1.00;;;;;;5035824;28;20173;-75
2022/07/06 06:41:10;;;;;;;10.67;5.50;;;19.00;1.00;;;;;;5032623;28;20191;-76
2022/07/06 06:43:36;;;;;;;10.93;5.43;;;19.20;1.00;;;;;;5035188;28;20178;-78
2022/07/06 06:46:02;;;;;;;11.97;4.90;;;19.30;1.00;;;;;;5034285;28;20190;-77
2022/07/06 06:48:27;;;;;;;9.83;5.13;;;19.60;1.00;;;;;;5042243;28;20263;-75
2022/07/06 06:50:53;;;;;;;13.93;5.13;;;19.90;1.00;;;;;;5040349;28;20209;-75
2022/07/06 06:53:19;;;;;;;10.00;5.00;;;20.10;1.00;;;;;;5054570;28;20210;-75
2022/07/06 06:55:44;;;;;;;9.20;5.00;;;20.30;1.00;;;;;;5054830;28;20203;-75
2022/07/06 06:58:10;;;;;;;9.17;5.30;;;20.40;1.00;;;;;;5055056;28;20168;-79
2022/07/06 07:00:36;;;;;;;7.87;5.30;;;20.50;1.00;;;;;;5042830;28;20193;-79
2022/07/06 07:03:01;;;;;;;10.27;5.30;;;20.40;1.00;;;;;;5034902;28;20216;-77
2022/07/06 07:05:27;;;;;;;8.37;2.67;;;20.30;1.00;;;;;;5035007;28;20253;-77
2022/07/06 07:07:54;;;;;;;6.50;3.30;;;20.00;1.00;;;;;;5034903;28;20176;-77
2022/07/06 07:10:21;;;;;;;9.03;3.80;;;19.90;1.00;;;;;;5034762;28;20211;-77
2022/07/06 07:12:47;;;;;;;7.23;3.80;;;20.00;1.00;;;;;;5034881;28;20167;-75
2022/07/06 07:15:13;;;;;;;10.43;3.70;;;20.20;1.00;;;;;;5035093;28;20179;-75
2022/07/06 07:17:40;;;;;;;10.53;4.43;;;20.40;1.00;;;;;;5035241;28;20230;-78
2022/07/06 07:20:07;;;;;;;6.90;3.77;;;20.40;1.00;;;;;;5034820;28;20176;-74
2022/07/06 07:22:32;;;;;;;7.50;3.77;;;20.40;1.00;;;;;;5032452;28;20187;-76
2022/07/06 07:25:01;;;;;;;6.83;3.27;;;20.20;1.00;;;;;;5023927;28;20178;-74
2022/07/06 07:27:27;;;;;;;6.70;3.20;;;20.00;1.00;;;;;;5014818;28;20180;-75
2022/07/06 07:29:53;;;;;;;11.20;4.00;;;19.90;1.00;;;;;;5014654;28;20222;-75
2022/07/06 07:32:19;;;;;;;8.60;3.33;;;19.90;1.00;;;;;;5014823;28;20246;-76
2022/07/06 07:34:45;;;;;;;7.90;3.10;;;19.80;1.00;;;;;;5029266;28;20182;-75
2022/07/06 07:37:11;;;;;;;5.67;2.97;;;19.60;1.00;;;;;;5035253;28;20507;-77
2022/07/06 07:39:37;;;;;;;6.30;3.00;;;19.80;1.00;;;;;;5034702;28;20199;-78
2022/07/06 07:42:03;;;;;;;9.80;3.47;;;20.00;1.00;;;;;;5049968;28;20186;-79
2022/07/06 07:44:28;;;;;;;9.00;3.30;;;20.20;1.00;;;;;;5053258;28;20175;-77
2022/07/06 07:46:54;;;;;;;10.47;3.20;;;20.30;1.00;;;;;;5054236;28;20199;-78
2022/07/06 07:49:21;;;;;;;6.03;2.67;;;20.20;1.00;;;;;;5052595;28;20187;-79
2022/07/06 07:51:47;;;;;;;6.83;2.60;;;20.10;1.00;;;;;;5037584;28;20740;-78
2022/07/06 07:54:13;;;;;;;6.23;2.57;;;20.30;1.00;;;;;;5034604;28;20247;-76
2022/07/06 07:56:42;;;;;;;5.33;2.93;;;20.30;1.00;;;;;;5032828;28;20181;-76
2022/07/06 07:59:08;;;;;;;8.00;2.73;;;20.30;1.00;;;;;;5043547;28;20188;-76
2022/07/06 08:01:34;;;;;;;7.70;2.53;;;20.00;1.00;;;;;;5040050;28;20223;-77
2022/07/06 08:04:03;;;;;;;8.63;2.90;;;19.80;1.00;;;;;;5032873;28;20188;-76
2022/07/06 08:06:29;;;;;;;7.00;2.43;;;19.70;1.00;;;;;;5029404;28;20644;-77
2022/07/06 08:08:55;;;;;;;5.90;1.97;;;19.80;1.00;;;;;;5033081;28;20193;-77
2022/07/06 08:11:21;;;;;;;4.57;2.10;;;19.60;1.00;;;;;;5037457;28;20679;-81
2022/07/06 08:13:47;;;;;;;7.13;1.80;;;19.60;1.00;;;;;;5034533;28;20241;-76
2022/07/06 08:16:12;;;;;;;5.33;2.13;;;19.60;1.00;;;;;;5033592;28;20179;-77
2022/07/06 08:18:38;;;;;;;6.53;1.93;;;19.90;1.00;;;;;;5033402;28;20186;-78
2022/07/06 08:21:05;;;;;;;5.73;2.30;;;20.10;1.00;;;;;;5014869;28;20175;-81
2022/07/06 08:23:31;;;;;;;4.03;2.07;;;20.20;1.00;;;;;;5025609;28;20182;-78
2022/07/06 08:25:56;;;;;;;6.57;3.10;;;20.20;1.00;;;;;;5030396;28;20190;-80
2022/07/06 08:28:22;;;;;;;4.73;2.97;;;20.30;1.00;;;;;;5032249;28;20240;-78
2022/07/06 08:30:48;;;;;;;6.93;3.37;;;20.10;1.00;;;;;;5038151;28;20251;-77
2022/07/06 08:33:14;;;;;;;6.70;3.97;;;20.10;1.00;;;;;;5052053;28;20257;-75
2022/07/06 08:35:41;;;;;;;5.30;2.97;;;20.00;1.00;;;;;;5033500;28;20242;-78
2022/07/06 08:38:06;;;;;;;9.33;3.20;;;20.00;1.00;;;;;;5033721;28;20168;-75
2022/07/06 08:40:38;;;;;;;8.73;3.17;;;20.10;1.00;;;;;;5033390;28;20187;-79
2022/07/06 08:43:03;;;;;;;6.93;3.00;;;20.10;1.00;;;;;;5034590;28;20221;-78
2022/07/06 08:45:30;;;;;;;6.40;3.60;;;20.40;1.00;;;;;;5034658;28;20511;-79
2022/07/06 08:48:03;;;;;;;6.23;3.63;;;20.60;1.00;;;;;;5032742;28;20684;-78
2022/07/06 08:50:28;;;;;;;7.83;3.73;;;20.40;1.00;;;;;;5024131;28;20584;-78
2022/07/06 08:52:55;;;;;;;8.67;3.53;;;20.50;1.00;;;;;;5018510;28;20177;-87
2022/07/06 08:55:24;;;;;;;6.17;3.07;;;20.50;1.00;;;;;;5034931;28;20201;-90
2022/07/06 08:57:51;;;;;;;6.13;2.57;;;20.50;1.00;;;;;;5035523;28;20200;-81
2022/07/06 09:00:18;;;;;;;6.50;2.70;;;20.80;1.00;;;;;;5039035;28;20190;-83
2022/07/06 09:02:44;;;;;;;7.33;4.00;;;20.90;1.00;;;;;;5040368;28;20184;-89
2022/07/06 09:05:15;;;;;;;6.90;3.50;;;20.80;1.00;;;;;;5034075;28;20271;-87
2022/07/06 09:07:41;;;;;;;6.93;3.60;;;20.70;1.00;;;;;;5035214;28;20179;-79
2022/07/06 09:10:08;;;;;;;7.33;3.40;;;20.70;1.00;;;;;;5035643;28;20871;-86
2022/07/06 09:12:34;;;;;;;6.30;3.20;;;20.60;1.00;;;;;;5047950;28;20237;-87
2022/07/06 09:15:00;;;;;;;6.97;3.50;;;21.00;1.00;;;;;;5033389;28;20180;-86
2022/07/06 09:17:27;;;;;;;5.97;3.60;;;20.80;1.00;;;;;;5034324;28;20252;-80
2022/07/06 09:19:54;;;;;;;5.10;2.90;;;20.70;1.00;;;;;;5034731;28;20173;-85
2022/07/06 09:22:32;;;;;;;6.80;3.50;;;20.50;1.00;;;;;;5036623;28;20625;-83
2022/07/06 09:25:06;;;;;;;7.13;3.23;;;20.60;1.00;;;;;;5035949;28;20531;-83
2022/07/06 09:27:38;;;;;;;7.47;3.57;;;20.40;1.00;;;;;;5033930;28;20242;-83
2022/07/06 09:30:04;;;;;;;6.07;3.20;;;20.20;1.00;;;;;;5029948;28;20322;-82
2022/07/06 09:32:30;;;;;;;6.13;3.10;;;20.30;1.00;;;;;;5035374;28;20162;-79
2022/07/06 09:34:56;;;;;;;7.13;2.50;;;20.50;1.00;;;;;;5036451;28;20181;-81
2022/07/06 09:37:25;;;;;;;7.30;3.10;;;20.90;1.00;;;;;;5054301;28;20201;-82
2022/07/06 09:43:23;;;;;;;5.70;2.50;;;21.70;1.00;;;;;;5033820;28;20572;-82
2022/07/06 09:45:52;;;;;;;7.33;2.77;;;22.10;99.90;;;;;;5034138;28;20623;-81
2022/07/06 09:48:22;;;;;;;8.93;2.70;;;22.10;99.90;;;;;;5036080;28;20187;-81
2022/07/06 09:50:53;;;;;;;9.07;3.20;;;22.30;99.90;;;;;;5030457;28;20573;-81
2022/07/06 09:53:21;;;;;;;6.73;2.77;;;21.70;99.90;;;;;;5022840;28;20659;-87
2022/07/06 09:55:48;;;;;;;5.47;2.80;;;21.50;99.90;;;;;;5015522;28;20173;-82
2022/07/06 09:58:16;;;;;;;5.47;3.07;;;21.50;1.00;;;;;;5014802;28;20542;-87
2022/07/06 10:00:45;;;;;;;4.67;2.63;;;21.50;99.90;;;;;;5015430;28;20182;-80
2022/07/06 10:03:13;;;;;;;4.90;2.43;;;21.50;99.90;;;;;;5013338;28;20605;-83
2022/07/06 10:05:46;;;;;;;6.63;2.70;;;21.60;99.90;;;;;;5014200;28;20180;-79
2022/07/06 10:08:12;;;;;;;6.43;2.57;;;21.50;99.90;;;;;;5022313;28;20148;-78
2022/07/06 10:10:39;;;;;;;7.20;2.90;;;21.50;99.90;;;;;;5025127;28;20540;-78
2022/07/06 10:13:09;;;;;;;6.53;2.90;;;21.40;1.00;;;;;;5028008;28;20157;-81
2022/07/06 10:15:38;;;;;;;7.57;2.93;;;21.30;1.00;;;;;;5049138;28;20253;-80
2022/07/06 10:18:10;;;;;;;5.30;2.80;;;21.30;1.00;;;;;;5022292;28;20154;-83
2022/07/06 10:20:38;;;;;;;9.27;3.00;;;21.40;1.00;;;;;;5019339;28;20174;-83
2022/07/06 10:23:08;;;;;;;4.80;2.50;;;21.50;1.00;;;;;;5017382;28;20171;-85
2022/07/06 10:25:40;;;;;;;6.50;3.43;;;21.60;1.00;;;;;;5019047;28;20255;-81
2022/07/06 10:28:13;;;;;;;4.60;3.03;;;21.50;1.00;;;;;;5018554;28;20190;-81
2022/07/06 10:30:40;;;;;;;6.53;2.80;;;21.50;1.00;;;;;;5017130;28;20313;-83
2022/07/06 10:33:06;;;;;;;7.17;2.80;;;21.50;1.00;;;;;;5032673;28;20183;-79
2022/07/06 10:35:32;;;;;;;6.33;2.93;;;21.40;1.00;;;;;;5017479;28;20182;-81
2022/07/06 10:38:06;;;;;;;7.27;2.83;;;21.40;1.00;;;;;;5019079;28;20249;-79
2022/07/06 10:43:23;;;;;;;4.43;2.47;;;21.30;1.00;;;;;;5030825;28;20238;-80
2022/07/06 10:45:48;;;;;;;7.73;2.87;;;21.50;1.00;;;;;;5020362;28;20220;-80
2022/07/06 10:48:17;;;;;;;10.30;3.13;;;21.70;1.00;;;;;;5018966;28;20194;-83
2022/07/06 10:51:01;;;;;;;4.83;2.90;;;22.00;99.90;;;;;;5018587;28;20281;-80
2022/07/06 10:53:38;;;;;;;5.23;2.70;;;21.70;99.90;;;;;;5017120;28;20164;-82
2022/07/06 10:56:06;;;;;;;7.23;2.97;;;21.60;1.00;;;;;;5019769;28;20166;-81
2022/07/06 10:58:50;;;;;;;6.20;2.67;;;21.40;1.00;;;;;;5018146;28;20526;-81
2022/07/06 11:01:18;;;;;;;6.67;3.17;;;21.60;1.00;;;;;;5018083;28;20182;-84
2022/07/06 11:03:47;;;;;;;6.27;2.97;;;21.60;1.00;;;;;;5018664;28;20217;-81
2022/07/06 11:06:17;;;;;;;6.50;3.10;;;21.80;99.90;;;;;;5033282;28;20187;-84
2022/07/06 11:08:57;;;;;;;4.77;2.80;;;21.90;99.90;;;;;;5024219;28;20179;-81
2022/07/06 11:11:44;;;;;;;6.47;2.73;;;22.20;99.90;;;;;;5030936;28;20224;-86
2022/07/06 11:14:15;;;;;;;4.80;2.20;;;22.20;99.90;;;;;;5017300;28;20153;-82
2022/07/06 11:16:46;;;;;;;6.17;2.50;;;22.20;99.90;;;;;;5017160;28;20206;-84
2022/07/06 11:19:17;;;;;;;4.70;2.10;;;21.80;99.90;;;;;;5016153;28;20230;-81
2022/07/06 11:21:51;;;;;;;7.53;2.80;;;21.80;99.90;;;;;;5017333;28;20673;-86
2022/07/06 11:24:23;;;;;;;5.07;2.10;;;22.00;99.90;;;;;;5020614;28;20226;-81
2022/07/06 11:26:50;;;;;;;3.43;1.70;;;21.80;94.10;;;;;;5028937;28;20196;-82
2022/07/06 11:29:20;;;;;;;6.20;2.53;;;21.90;1.00;;;;;;5033124;28;20188;-79
2022/07/06 11:31:48;;;;;;;5.27;2.63;;;22.10;1.00;;;;;;5035597;28;20238;-82
2022/07/06 11:34:23;;;;;;;6.13;2.50;;;22.00;1.00;;;;;;5035646;28;20194;-81
2022/07/06 11:37:03;;;;;;;6.17;2.43;;;22.10;99.90;;;;;;5032809;28;20164;-84
2022/07/06 11:39:35;;;;;;;6.17;2.00;;;21.90;99.90;;;;;;5024412;28;20231;-83
2022/07/06 11:42:03;;;;;;;6.17;2.30;;;21.80;99.90;;;;;;5025139;28;20636;-83
2022/07/06 11:44:31;;;;;;;5.13;2.33;;;22.10;99.90;;;;;;5016036;28;20174;-85
2022/07/06 11:46:59;;;;;;;7.27;2.23;;;22.20;42.10;;;;;;5015906;28;20174;-82
2022/07/06 11:49:25;;;;;;;4.13;2.30;;;21.90;99.90;;;;;;5016517;28;20166;-84
2022/07/06 11:51:50;;;;;;;5.97;2.17;;;21.80;99.90;;;;;;5024814;28;20550;-80
2022/07/06 11:54:17;;;;;;;4.90;2.20;;;22.10;99.90;;;;;;5042606;28;20232;-79
2022/07/06 11:56:54;;;;;;;4.53;1.97;;;22.40;57.30;;;;;;5026011;28;20204;-84
2022/07/06 11:59:22;;;;;;;4.10;2.20;;;22.40;1.00;;;;;;5017452;28;20526;-87
2022/07/06 12:01:48;;;;;;;5.73;2.30;;;22.60;1.00;;;;;;5015955;28;20184;-82
2022/07/06 12:04:24;;;;;;;6.03;2.00;;;22.70;1.00;;;;;;5016623;28;20172;-82
2022/07/06 12:06:51;;;;;;;7.03;2.50;;;22.90;1.00;;;;;;5015572;28;20170;-83
2022/07/06 12:09:21;;;;;;;4.83;2.07;;;22.80;99.90;;;;;;5015626;28;20270;-86
2022/07/06 12:11:47;;;;;;;7.10;2.30;;;22.70;1.00;;;;;;5016098;28;20199;-85
2022/07/06 12:14:18;;;;;;;7.07;2.50;;;22.90;1.00;;;;;;5015889;28;20245;-84
2022/07/06 12:16:45;;;;;;;7.67;2.47;;;22.60;1.00;;;;;;5015962;28;20187;-87
2022/07/06 12:19:12;;;;;;;6.17;2.17;;;22.30;28.80;;;;;;5015445;28;20172;-87
2022/07/06 12:21:49;;;;;;;4.60;1.97;;;22.40;1.00;;;;;;5016050;28;20170;-82
2022/07/06 12:24:25;;;;;;;4.30;2.30;;;22.60;1.00;;;;;;5016052;28;20195;-87
2022/07/06 12:26:53;;;;;;;6.57;2.50;;;22.80;36.10;;;;;;5022952;28;20520;-79
2022/07/06 12:29:19;;;;;;;5.20;2.00;;;22.60;1.00;;;;;;5038162;28;20203;-84
2022/07/06 12:31:56;;;;;;;4.93;2.40;;;22.50;1.00;;;;;;5015958;28;20299;-89
2022/07/06 12:34:34;;;;;;;5.03;2.43;;;22.30;99.90;;;;;;5016638;28;20163;-81
2022/07/06 12:37:08;;;;;;;3.73;2.43;;;22.40;99.90;;;;;;5019197;28;20196;-80
2022/07/06 12:39:45;;;;;;;5.83;2.97;;;22.40;99.90;;;;;;5027521;28;20211;-79
2022/07/06 12:42:15;;;;;;;5.73;2.87;;;22.70;99.90;;;;;;5026707;28;20165;-81
2022/07/06 12:44:51;;;;;;;6.43;2.33;;;22.70;99.90;;;;;;5019266;28;20636;-83
2022/07/06 12:47:20;;;;;;;7.60;2.30;;;22.90;99.90;;;;;;5050644;28;20195;-80
2022/07/06 12:50:10;;;;;;;6.07;2.33;;;22.80;1.00;;;;;;5024294;28;20205;-80
2022/07/06 12:52:40;;;;;;;6.73;2.70;;;22.90;1.00;;;;;;5014167;28;20189;-86
2022/07/06 12:55:12;;;;;;;5.60;2.37;;;23.00;1.00;;;;;;5015590;28;20197;-80
2022/07/06 12:57:48;;;;;;;6.37;2.67;;;22.70;1.00;;;;;;5022920;28;20273;-83
2022/07/06 13:00:16;;;;;;;7.60;3.43;;;22.80;33.80;;;;;;5033579;28;20181;-81